sensor_id;sensor_type;location;lat;lon;timestamp;P1;durP1;ratioP1;P2;durP2;ratioP2
38465;SDS011;24244;51.950;5.902;2022-08-18T00:00:26;27.20;;;22.40;;
38465;SDS011;24244;51.950;5.902;2022-08-18T00:02:51;26.05;;;21.58;;
38465;SDS011;24244;51.950;5.902;2022-08-18T00:05:18;24.70;;;20.20;;
38465;SDS011;24244;51.950;5.902;2022-08-18T00:07:45;24.50;;;20.73;;
38465;SDS011;24244;51.950;5.902;2022-08-18T00:10:10;24.75;;;20.95;;
38465;SDS011;24244;51.950;5.902;2022-08-18T00:12:37;24.10;;;19.67;;
38465;SDS011;24244;51.950;5.902;2022-08-18T00:15:08;26.77;;;21.60;;
38465;SDS011;24244;51.950;5.902;2022-08-18T00:17:35;26.52;;;20.40;;
38465;SDS011;24244;51.950;5.902;2022-08-18T00:20:03;25.27;;;19.98;;
38465;SDS011;24244;51.950;5.902;2022-08-18T00:22:31;25.80;;;20.13;;
38465;SDS011;24244;51.950;5.902;2022-08-18T00:24:56;23.67;;;19.63;;
38465;SDS011;24244;51.950;5.902;2022-08-18T00:27:23;25.00;;;20.02;;
38465;SDS011;24244;51.950;5.902;2022-08-18T00:29:50;23.50;;;19.85;;
38465;SDS011;24244;51.950;5.902;2022-08-18T00:32:19;25.23;;;20.27;;
38465;SDS011;24244;51.950;5.902;2022-08-18T00:34:46;23.77;;;20.17;;
38465;SDS011;24244;51.950;5.902;2022-08-18T00:37:12;23.00;;;19.30;;
38465;SDS011;24244;51.950;5.902;2022-08-18T00:39:37;26.42;;;20.75;;
38465;SDS011;24244;51.950;5.902;2022-08-18T00:42:13;24.77;;;20.10;;
38465;SDS011;24244;51.950;5.902;2022-08-18T00:44:40;25.40;;;21.00;;
38465;SDS011;24244;51.950;5.902;2022-08-18T00:47:05;25.35;;;21.17;;
38465;SDS011;24244;51.950;5.902;2022-08-18T00:49:32;23.73;;;20.02;;
38465;SDS011;24244;51.950;5.902;2022-08-18T00:51:59;25.67;;;20.45;;
38465;SDS011;24244;51.950;5.902;2022-08-18T00:54:26;23.92;;;20.70;;
38465;SDS011;24244;51.950;5.902;2022-08-18T00:56:55;26.38;;;20.75;;
38465;SDS011;24244;51.950;5.902;2022-08-18T00:59:25;25.33;;;20.20;;
38465;SDS011;24244;51.950;5.902;2022-08-18T01:01:59;25.55;;;20.17;;
38465;SDS011;24244;51.950;5.902;2022-08-18T01:04:28;25.05;;;20.35;;
38465;SDS011;24244;51.950;5.902;2022-08-18T01:07:01;23.73;;;19.15;;
38465;SDS011;24244;51.950;5.902;2022-08-18T01:09:31;24.85;;;20.13;;
38465;SDS011;24244;51.950;5.902;2022-08-18T01:11:57;24.23;;;19.90;;
38465;SDS011;24244;51.950;5.902;2022-08-18T01:14:22;25.20;;;19.80;;
38465;SDS011;24244;51.950;5.902;2022-08-18T01:16:48;23.63;;;19.42;;
38465;SDS011;24244;51.950;5.902;2022-08-18T01:19:33;23.13;;;18.75;;
38465;SDS011;24244;51.950;5.902;2022-08-18T01:22:21;22.52;;;18.42;;
38465;SDS011;24244;51.950;5.902;2022-08-18T01:24:53;25.33;;;20.38;;
38465;SDS011;24244;51.950;5.902;2022-08-18T01:27:40;24.02;;;19.20;;
38465;SDS011;24244;51.950;5.902;2022-08-18T01:30:07;23.58;;;19.10;;
38465;SDS011;24244;51.950;5.902;2022-08-18T01:32:34;22.92;;;18.45;;
38465;SDS011;24244;51.950;5.902;2022-08-18T01:35:01;27.23;;;20.30;;
38465;SDS011;24244;51.950;5.902;2022-08-18T01:37:27;24.52;;;19.80;;
38465;SDS011;24244;51.950;5.902;2022-08-18T01:39:54;23.05;;;19.13;;
38465;SDS011;24244;51.950;5.902;2022-08-18T01:42:20;21.88;;;17.55;;
38465;SDS011;24244;51.950;5.902;2022-08-18T01:44:46;20.55;;;16.30;;
38465;SDS011;24244;51.950;5.902;2022-08-18T01:47:15;20.33;;;16.85;;
38465;SDS011;24244;51.950;5.902;2022-08-18T01:49:42;20.50;;;15.73;;
38465;SDS011;24244;51.950;5.902;2022-08-18T01:52:10;20.73;;;14.95;;
38465;SDS011;24244;51.950;5.902;2022-08-18T01:54:42;18.52;;;14.73;;
38465;SDS011;24244;51.950;5.902;2022-08-18T01:57:09;18.55;;;14.90;;
38465;SDS011;24244;51.950;5.902;2022-08-18T01:59:37;17.73;;;14.27;;
38465;SDS011;24244;51.950;5.902;2022-08-18T02:02:03;17.30;;;14.02;;
38465;SDS011;24244;51.950;5.902;2022-08-18T02:04:29;18.23;;;14.10;;
38465;SDS011;24244;51.950;5.902;2022-08-18T02:06:58;17.00;;;13.30;;
38465;SDS011;24244;51.950;5.902;2022-08-18T02:09:23;16.70;;;12.52;;
38465;SDS011;24244;51.950;5.902;2022-08-18T02:11:49;15.90;;;12.43;;
38465;SDS011;24244;51.950;5.902;2022-08-18T02:14:16;15.93;;;12.05;;
38465;SDS011;24244;51.950;5.902;2022-08-18T02:16:41;15.60;;;12.07;;
38465;SDS011;24244;51.950;5.902;2022-08-18T02:19:07;15.73;;;12.25;;
38465;SDS011;24244;51.950;5.902;2022-08-18T02:21:32;16.50;;;12.35;;
38465;SDS011;24244;51.950;5.902;2022-08-18T02:23:58;15.65;;;12.23;;
38465;SDS011;24244;51.950;5.902;2022-08-18T02:26:23;14.50;;;11.40;;
38465;SDS011;24244;51.950;5.902;2022-08-18T02:28:49;14.82;;;12.13;;
38465;SDS011;24244;51.950;5.902;2022-08-18T02:31:16;16.02;;;11.98;;
38465;SDS011;24244;51.950;5.902;2022-08-18T02:33:44;15.35;;;11.68;;
38465;SDS011;24244;51.950;5.902;2022-08-18T02:36:11;17.17;;;11.93;;
38465;SDS011;24244;51.950;5.902;2022-08-18T02:38:37;15.43;;;11.75;;
38465;SDS011;24244;51.950;5.902;2022-08-18T02:41:04;15.82;;;12.55;;
38465;SDS011;24244;51.950;5.902;2022-08-18T02:43:31;15.85;;;12.15;;
38465;SDS011;24244;51.950;5.902;2022-08-18T02:45:57;18.10;;;12.00;;
38465;SDS011;24244;51.950;5.902;2022-08-18T02:48:24;16.38;;;11.85;;
38465;SDS011;24244;51.950;5.902;2022-08-18T02:50:59;16.25;;;11.48;;
38465;SDS011;24244;51.950;5.902;2022-08-18T02:53:26;16.17;;;12.10;;
38465;SDS011;24244;51.950;5.902;2022-08-18T02:55:52;16.15;;;12.38;;
38465;SDS011;24244;51.950;5.902;2022-08-18T02:58:18;15.88;;;12.20;;
38465;SDS011;24244;51.950;5.902;2022-08-18T03:00:44;17.40;;;12.35;;
38465;SDS011;24244;51.950;5.902;2022-08-18T03:03:10;15.75;;;12.35;;
38465;SDS011;24244;51.950;5.902;2022-08-18T03:05:38;15.73;;;11.75;;
38465;SDS011;24244;51.950;5.902;2022-08-18T03:08:04;16.65;;;12.25;;
38465;SDS011;24244;51.950;5.902;2022-08-18T03:10:29;14.43;;;11.43;;
38465;SDS011;24244;51.950;5.902;2022-08-18T03:12:55;16.27;;;11.15;;
38465;SDS011;24244;51.950;5.902;2022-08-18T03:15:21;15.70;;;11.93;;
38465;SDS011;24244;51.950;5.902;2022-08-18T03:17:46;14.23;;;10.73;;
38465;SDS011;24244;51.950;5.902;2022-08-18T03:20:12;17.25;;;12.20;;
38465;SDS011;24244;51.950;5.902;2022-08-18T03:22:39;13.48;;;10.68;;
38465;SDS011;24244;51.950;5.902;2022-08-18T03:25:04;15.27;;;10.70;;
38465;SDS011;24244;51.950;5.902;2022-08-18T03:27:30;14.45;;;10.77;;
38465;SDS011;24244;51.950;5.902;2022-08-18T03:29:56;15.35;;;10.88;;
38465;SDS011;24244;51.950;5.902;2022-08-18T03:32:21;14.65;;;10.48;;
38465;SDS011;24244;51.950;5.902;2022-08-18T03:34:47;13.27;;;9.70;;
38465;SDS011;24244;51.950;5.902;2022-08-18T03:37:12;14.15;;;9.60;;
38465;SDS011;24244;51.950;5.902;2022-08-18T03:39:41;14.52;;;10.63;;
38465;SDS011;24244;51.950;5.902;2022-08-18T03:42:07;15.40;;;10.98;;
38465;SDS011;24244;51.950;5.902;2022-08-18T03:44:33;13.75;;;10.13;;
38465;SDS011;24244;51.950;5.902;2022-08-18T03:47:03;14.55;;;10.15;;
38465;SDS011;24244;51.950;5.902;2022-08-18T03:49:31;13.98;;;10.20;;
38465;SDS011;24244;51.950;5.902;2022-08-18T03:51:57;15.55;;;9.85;;
38465;SDS011;24244;51.950;5.902;2022-08-18T03:54:25;14.52;;;10.30;;
38465;SDS011;24244;51.950;5.902;2022-08-18T03:56:52;13.30;;;9.40;;
38465;SDS011;24244;51.950;5.902;2022-08-18T03:59:19;14.07;;;9.75;;
38465;SDS011;24244;51.950;5.902;2022-08-18T04:01:48;13.57;;;9.57;;
38465;SDS011;24244;51.950;5.902;2022-08-18T04:04:16;12.80;;;9.27;;
38465;SDS011;24244;51.950;5.902;2022-08-18T04:06:44;14.48;;;9.80;;
38465;SDS011;24244;51.950;5.902;2022-08-18T04:09:14;13.20;;;9.13;;
38465;SDS011;24244;51.950;5.902;2022-08-18T04:11:40;15.05;;;9.60;;
38465;SDS011;24244;51.950;5.902;2022-08-18T04:14:09;13.80;;;9.77;;
38465;SDS011;24244;51.950;5.902;2022-08-18T04:16:37;13.85;;;10.35;;
38465;SDS011;24244;51.950;5.902;2022-08-18T04:19:02;13.50;;;9.77;;
38465;SDS011;24244;51.950;5.902;2022-08-18T04:21:29;14.07;;;9.77;;
38465;SDS011;24244;51.950;5.902;2022-08-18T04:23:57;12.90;;;9.50;;
38465;SDS011;24244;51.950;5.902;2022-08-18T04:26:29;14.63;;;10.18;;
38465;SDS011;24244;51.950;5.902;2022-08-18T04:28:55;12.10;;;8.65;;
38465;SDS011;24244;51.950;5.902;2022-08-18T04:31:22;12.77;;;9.40;;
38465;SDS011;24244;51.950;5.902;2022-08-18T04:33:50;14.73;;;9.77;;
38465;SDS011;24244;51.950;5.902;2022-08-18T04:36:15;14.40;;;9.75;;
38465;SDS011;24244;51.950;5.902;2022-08-18T04:38:42;13.18;;;9.00;;
38465;SDS011;24244;51.950;5.902;2022-08-18T04:41:08;13.43;;;9.23;;
38465;SDS011;24244;51.950;5.902;2022-08-18T04:43:36;14.27;;;10.00;;
38465;SDS011;24244;51.950;5.902;2022-08-18T04:46:02;14.07;;;9.77;;
38465;SDS011;24244;51.950;5.902;2022-08-18T04:48:30;13.88;;;9.63;;
38465;SDS011;24244;51.950;5.902;2022-08-18T04:51:03;14.10;;;9.93;;
38465;SDS011;24244;51.950;5.902;2022-08-18T04:53:30;13.52;;;8.90;;
38465;SDS011;24244;51.950;5.902;2022-08-18T04:56:15;14.32;;;9.55;;
38465;SDS011;24244;51.950;5.902;2022-08-18T04:58:50;13.10;;;10.27;;
38465;SDS011;24244;51.950;5.902;2022-08-18T05:01:16;14.85;;;11.05;;
38465;SDS011;24244;51.950;5.902;2022-08-18T05:03:44;15.82;;;10.65;;
38465;SDS011;24244;51.950;5.902;2022-08-18T05:06:10;16.73;;;10.90;;
38465;SDS011;24244;51.950;5.902;2022-08-18T05:08:36;15.85;;;11.60;;
38465;SDS011;24244;51.950;5.902;2022-08-18T05:11:02;17.13;;;11.80;;
38465;SDS011;24244;51.950;5.902;2022-08-18T05:13:27;16.77;;;11.95;;
38465;SDS011;24244;51.950;5.902;2022-08-18T05:15:53;15.70;;;11.80;;
38465;SDS011;24244;51.950;5.902;2022-08-18T05:18:20;14.52;;;10.80;;
38465;SDS011;24244;51.950;5.902;2022-08-18T05:20:49;16.00;;;12.00;;
38465;SDS011;24244;51.950;5.902;2022-08-18T05:23:15;17.38;;;12.27;;
38465;SDS011;24244;51.950;5.902;2022-08-18T05:25:41;16.15;;;11.85;;
38465;SDS011;24244;51.950;5.902;2022-08-18T05:28:06;16.25;;;11.70;;
38465;SDS011;24244;51.950;5.902;2022-08-18T05:30:33;16.63;;;12.10;;
38465;SDS011;24244;51.950;5.902;2022-08-18T05:33:00;18.27;;;12.57;;
38465;SDS011;24244;51.950;5.902;2022-08-18T05:35:30;17.33;;;12.57;;
38465;SDS011;24244;51.950;5.902;2022-08-18T05:41:04;15.95;;;11.35;;
38465;SDS011;24244;51.950;5.902;2022-08-18T05:43:33;15.53;;;11.00;;
38465;SDS011;24244;51.950;5.902;2022-08-18T05:46:00;15.15;;;11.30;;
38465;SDS011;24244;51.950;5.902;2022-08-18T05:48:29;17.70;;;11.40;;
38465;SDS011;24244;51.950;5.902;2022-08-18T05:50:55;15.52;;;10.90;;
38465;SDS011;24244;51.950;5.902;2022-08-18T05:53:22;14.68;;;10.20;;
38465;SDS011;24244;51.950;5.902;2022-08-18T05:56:08;14.10;;;9.95;;
38465;SDS011;24244;51.950;5.902;2022-08-18T05:58:54;13.85;;;9.23;;
38465;SDS011;24244;51.950;5.902;2022-08-18T06:01:21;16.13;;;9.70;;
38465;SDS011;24244;51.950;5.902;2022-08-18T06:03:51;15.50;;;9.75;;
38465;SDS011;24244;51.950;5.902;2022-08-18T06:06:20;14.02;;;8.90;;
38465;SDS011;24244;51.950;5.902;2022-08-18T06:08:49;13.18;;;8.82;;
38465;SDS011;24244;51.950;5.902;2022-08-18T06:11:21;12.38;;;8.45;;
38465;SDS011;24244;51.950;5.902;2022-08-18T06:13:47;12.65;;;8.85;;
38465;SDS011;24244;51.950;5.902;2022-08-18T06:16:16;13.52;;;8.55;;
38465;SDS011;24244;51.950;5.902;2022-08-18T06:18:49;13.60;;;8.70;;
38465;SDS011;24244;51.950;5.902;2022-08-18T06:21:25;13.02;;;8.68;;
38465;SDS011;24244;51.950;5.902;2022-08-18T06:24:05;12.73;;;8.57;;
38465;SDS011;24244;51.950;5.902;2022-08-18T06:26:42;12.13;;;8.10;;
38465;SDS011;24244;51.950;5.902;2022-08-18T06:29:24;12.38;;;8.32;;
38465;SDS011;24244;51.950;5.902;2022-08-18T06:32:01;13.18;;;8.30;;
38465;SDS011;24244;51.950;5.902;2022-08-18T06:34:37;12.18;;;8.05;;
38465;SDS011;24244;51.950;5.902;2022-08-18T06:37:15;12.57;;;7.47;;
38465;SDS011;24244;51.950;5.902;2022-08-18T06:39:46;12.13;;;7.70;;
38465;SDS011;24244;51.950;5.902;2022-08-18T06:42:17;12.40;;;7.70;;
38465;SDS011;24244;51.950;5.902;2022-08-18T06:44:46;12.98;;;8.27;;
38465;SDS011;24244;51.950;5.902;2022-08-18T06:47:17;12.18;;;8.18;;
38465;SDS011;24244;51.950;5.902;2022-08-18T06:49:53;14.05;;;8.38;;
38465;SDS011;24244;51.950;5.902;2022-08-18T06:52:28;11.38;;;7.95;;
38465;SDS011;24244;51.950;5.902;2022-08-18T06:54:57;13.93;;;8.20;;
38465;SDS011;24244;51.950;5.902;2022-08-18T06:57:26;11.77;;;8.38;;
38465;SDS011;24244;51.950;5.902;2022-08-18T06:59:58;12.80;;;8.48;;
38465;SDS011;24244;51.950;5.902;2022-08-18T07:02:41;12.40;;;7.88;;
38465;SDS011;24244;51.950;5.902;2022-08-18T07:05:16;12.00;;;7.55;;
38465;SDS011;24244;51.950;5.902;2022-08-18T07:07:45;11.13;;;7.05;;
38465;SDS011;24244;51.950;5.902;2022-08-18T07:10:27;11.20;;;7.00;;
38465;SDS011;24244;51.950;5.902;2022-08-18T07:15:50;10.32;;;7.25;;
38465;SDS011;24244;51.950;5.902;2022-08-18T07:18:21;10.38;;;6.65;;
38465;SDS011;24244;51.950;5.902;2022-08-18T07:20:50;10.45;;;7.32;;
38465;SDS011;24244;51.950;5.902;2022-08-18T07:23:23;11.27;;;7.28;;
38465;SDS011;24244;51.950;5.902;2022-08-18T07:25:52;9.90;;;6.63;;
38465;SDS011;24244;51.950;5.902;2022-08-18T07:28:30;10.38;;;6.50;;
38465;SDS011;24244;51.950;5.902;2022-08-18T07:31:08;10.32;;;6.60;;
38465;SDS011;24244;51.950;5.902;2022-08-18T07:33:37;11.57;;;6.75;;
38465;SDS011;24244;51.950;5.902;2022-08-18T07:36:06;12.88;;;7.55;;
38465;SDS011;24244;51.950;5.902;2022-08-18T07:38:35;10.48;;;6.28;;
38465;SDS011;24244;51.950;5.902;2022-08-18T07:41:08;9.73;;;6.68;;
38465;SDS011;24244;51.950;5.902;2022-08-18T07:43:53;9.98;;;5.85;;
38465;SDS011;24244;51.950;5.902;2022-08-18T07:46:27;9.48;;;6.32;;
38465;SDS011;24244;51.950;5.902;2022-08-18T07:48:59;9.93;;;6.13;;
38465;SDS011;24244;51.950;5.902;2022-08-18T07:51:28;9.98;;;6.10;;
38465;SDS011;24244;51.950;5.902;2022-08-18T07:54:08;11.07;;;6.38;;
38465;SDS011;24244;51.950;5.902;2022-08-18T07:56:40;10.52;;;6.50;;
38465;SDS011;24244;51.950;5.902;2022-08-18T07:59:17;11.52;;;6.53;;
38465;SDS011;24244;51.950;5.902;2022-08-18T08:01:51;10.45;;;6.43;;
38465;SDS011;24244;51.950;5.902;2022-08-18T08:04:37;9.50;;;5.85;;
38465;SDS011;24244;51.950;5.902;2022-08-18T08:07:13;8.70;;;5.90;;
38465;SDS011;24244;51.950;5.902;2022-08-18T08:09:42;9.55;;;5.65;;
38465;SDS011;24244;51.950;5.902;2022-08-18T08:12:15;9.68;;;5.93;;
38465;SDS011;24244;51.950;5.902;2022-08-18T08:14:53;9.77;;;5.57;;
38465;SDS011;24244;51.950;5.902;2022-08-18T08:17:28;8.73;;;5.45;;
38465;SDS011;24244;51.950;5.902;2022-08-18T08:19:58;9.20;;;5.57;;
38465;SDS011;24244;51.950;5.902;2022-08-18T08:22:36;9.00;;;5.38;;
38465;SDS011;24244;51.950;5.902;2022-08-18T08:25:07;8.65;;;5.05;;
38465;SDS011;24244;51.950;5.902;2022-08-18T08:27:47;9.95;;;5.30;;
38465;SDS011;24244;51.950;5.902;2022-08-18T08:30:26;8.80;;;5.60;;
38465;SDS011;24244;51.950;5.902;2022-08-18T08:32:58;10.68;;;5.38;;
38465;SDS011;24244;51.950;5.902;2022-08-18T08:35:35;9.27;;;5.88;;
38465;SDS011;24244;51.950;5.902;2022-08-18T08:38:07;9.25;;;5.50;;
38465;SDS011;24244;51.950;5.902;2022-08-18T08:40:39;9.02;;;5.40;;
38465;SDS011;24244;51.950;5.902;2022-08-18T08:43:11;8.48;;;5.53;;
38465;SDS011;24244;51.950;5.902;2022-08-18T08:45:42;8.50;;;5.57;;
38465;SDS011;24244;51.950;5.902;2022-08-18T08:48:13;8.38;;;5.22;;
38465;SDS011;24244;51.950;5.902;2022-08-18T08:50:46;8.60;;;5.57;;
38465;SDS011;24244;51.950;5.902;2022-08-18T08:53:18;8.77;;;5.30;;
38465;SDS011;24244;51.950;5.902;2022-08-18T08:55:48;10.63;;;5.47;;
38465;SDS011;24244;51.950;5.902;2022-08-18T08:58:18;10.07;;;5.78;;
38465;SDS011;24244;51.950;5.902;2022-08-18T09:00:48;8.38;;;5.28;;
38465;SDS011;24244;51.950;5.902;2022-08-18T09:05:48;7.45;;;4.47;;
38465;SDS011;24244;51.950;5.902;2022-08-18T09:08:30;9.43;;;4.57;;
38465;SDS011;24244;51.950;5.902;2022-08-18T09:11:28;8.98;;;4.95;;
38465;SDS011;24244;51.950;5.902;2022-08-18T09:14:19;7.53;;;4.50;;
38465;SDS011;24244;51.950;5.902;2022-08-18T09:17:12;8.05;;;4.45;;
38465;SDS011;24244;51.950;5.902;2022-08-18T09:19:55;8.10;;;4.60;;
38465;SDS011;24244;51.950;5.902;2022-08-18T09:22:35;7.55;;;4.13;;
38465;SDS011;24244;51.950;5.902;2022-08-18T09:28:06;7.30;;;4.50;;
38465;SDS011;24244;51.950;5.902;2022-08-18T09:30:38;6.75;;;4.10;;
38465;SDS011;24244;51.950;5.902;2022-08-18T09:33:13;8.07;;;4.80;;
38465;SDS011;24244;51.950;5.902;2022-08-18T09:35:52;7.88;;;4.43;;
38465;SDS011;24244;51.950;5.902;2022-08-18T09:38:30;7.90;;;4.72;;
38465;SDS011;24244;51.950;5.902;2022-08-18T09:41:18;8.15;;;4.43;;
38465;SDS011;24244;51.950;5.902;2022-08-18T09:43:57;7.90;;;4.95;;
38465;SDS011;24244;51.950;5.902;2022-08-18T09:46:54;7.97;;;4.75;;
38465;SDS011;24244;51.950;5.902;2022-08-18T09:49:39;7.50;;;4.10;;
38465;SDS011;24244;51.950;5.902;2022-08-18T09:58:45;8.38;;;4.60;;
38465;SDS011;24244;51.950;5.902;2022-08-18T10:01:20;7.35;;;4.32;;
38465;SDS011;24244;51.950;5.902;2022-08-18T10:09:42;7.80;;;4.82;;
38465;SDS011;24244;51.950;5.902;2022-08-18T10:12:27;7.78;;;4.38;;
38465;SDS011;24244;51.950;5.902;2022-08-18T10:15:19;7.95;;;4.35;;
38465;SDS011;24244;51.950;5.902;2022-08-18T10:18:01;8.23;;;4.50;;
38465;SDS011;24244;51.950;5.902;2022-08-18T10:20:45;7.90;;;4.63;;
38465;SDS011;24244;51.950;5.902;2022-08-18T10:29:44;7.60;;;4.10;;
38465;SDS011;24244;51.950;5.902;2022-08-18T10:32:20;8.00;;;4.47;;
38465;SDS011;24244;51.950;5.902;2022-08-18T10:37:26;8.05;;;4.43;;
38465;SDS011;24244;51.950;5.902;2022-08-18T10:39:58;7.60;;;4.15;;
38465;SDS011;24244;51.950;5.902;2022-08-18T10:42:26;7.35;;;4.30;;
38465;SDS011;24244;51.950;5.902;2022-08-18T10:44:57;8.35;;;4.05;;
38465;SDS011;24244;51.950;5.902;2022-08-18T10:47:31;7.18;;;4.60;;
38465;SDS011;24244;51.950;5.902;2022-08-18T10:49:57;7.97;;;4.93;;
38465;SDS011;24244;51.950;5.902;2022-08-18T10:52:30;8.18;;;4.65;;
38465;SDS011;24244;51.950;5.902;2022-08-18T10:55:31;7.75;;;4.82;;
38465;SDS011;24244;51.950;5.902;2022-08-18T11:01:06;8.38;;;5.07;;
38465;SDS011;24244;51.950;5.902;2022-08-18T11:03:58;10.10;;;5.53;;
38465;SDS011;24244;51.950;5.902;2022-08-18T11:06:27;7.80;;;4.70;;
38465;SDS011;24244;51.950;5.902;2022-08-18T11:08:56;8.63;;;5.10;;
38465;SDS011;24244;51.950;5.902;2022-08-18T11:11:25;8.43;;;5.28;;
38465;SDS011;24244;51.950;5.902;2022-08-18T11:14:00;8.63;;;5.18;;
38465;SDS011;24244;51.950;5.902;2022-08-18T11:16:36;8.05;;;5.22;;
38465;SDS011;24244;51.950;5.902;2022-08-18T11:19:13;8.40;;;5.20;;
38465;SDS011;24244;51.950;5.902;2022-08-18T11:21:42;9.13;;;5.57;;
38465;SDS011;24244;51.950;5.902;2022-08-18T11:24:12;8.98;;;5.60;;
38465;SDS011;24244;51.950;5.902;2022-08-18T11:26:40;8.23;;;5.18;;
38465;SDS011;24244;51.950;5.902;2022-08-18T11:31:47;8.73;;;5.15;;
38465;SDS011;24244;51.950;5.902;2022-08-18T11:34:17;8.32;;;4.68;;
38465;SDS011;24244;51.950;5.902;2022-08-18T11:36:56;9.57;;;5.15;;
38465;SDS011;24244;51.950;5.902;2022-08-18T11:39:23;8.23;;;5.18;;
38465;SDS011;24244;51.950;5.902;2022-08-18T11:41:49;10.00;;;5.43;;
38465;SDS011;24244;51.950;5.902;2022-08-18T11:44:16;8.77;;;5.45;;
38465;SDS011;24244;51.950;5.902;2022-08-18T11:46:44;10.00;;;5.53;;
38465;SDS011;24244;51.950;5.902;2022-08-18T11:49:16;7.82;;;5.20;;
38465;SDS011;24244;51.950;5.902;2022-08-18T11:51:54;10.05;;;5.63;;
38465;SDS011;24244;51.950;5.902;2022-08-18T11:54:21;8.70;;;5.43;;
38465;SDS011;24244;51.950;5.902;2022-08-18T11:59:55;8.25;;;4.88;;
38465;SDS011;24244;51.950;5.902;2022-08-18T12:02:21;7.55;;;4.90;;
38465;SDS011;24244;51.950;5.902;2022-08-18T12:07:25;8.23;;;4.65;;
38465;SDS011;24244;51.950;5.902;2022-08-18T12:10:08;8.07;;;4.85;;
38465;SDS011;24244;51.950;5.902;2022-08-18T12:12:52;8.55;;;4.88;;
38465;SDS011;24244;51.950;5.902;2022-08-18T12:15:25;8.30;;;5.45;;
38465;SDS011;24244;51.950;5.902;2022-08-18T12:17:53;8.05;;;4.90;;
38465;SDS011;24244;51.950;5.902;2022-08-18T12:20:20;8.25;;;4.93;;
38465;SDS011;24244;51.950;5.902;2022-08-18T12:22:46;7.67;;;5.00;;
38465;SDS011;24244;51.950;5.902;2022-08-18T12:25:15;8.43;;;5.07;;
38465;SDS011;24244;51.950;5.902;2022-08-18T12:27:42;8.32;;;4.93;;
38465;SDS011;24244;51.950;5.902;2022-08-18T12:30:08;8.05;;;4.90;;
38465;SDS011;24244;51.950;5.902;2022-08-18T12:35:02;8.55;;;4.60;;
38465;SDS011;24244;51.950;5.902;2022-08-18T12:37:31;8.45;;;4.80;;
38465;SDS011;24244;51.950;5.902;2022-08-18T12:39:56;7.68;;;4.78;;
38465;SDS011;24244;51.950;5.902;2022-08-18T12:42:23;7.97;;;5.13;;
38465;SDS011;24244;51.950;5.902;2022-08-18T12:44:49;8.57;;;5.13;;
38465;SDS011;24244;51.950;5.902;2022-08-18T12:47:17;8.77;;;5.18;;
38465;SDS011;24244;51.950;5.902;2022-08-18T12:49:45;8.38;;;4.68;;
38465;SDS011;24244;51.950;5.902;2022-08-18T12:52:10;9.23;;;4.43;;
38465;SDS011;24244;51.950;5.902;2022-08-18T12:54:38;7.47;;;4.50;;
38465;SDS011;24244;51.950;5.902;2022-08-18T12:57:04;8.15;;;5.20;;
38465;SDS011;24244;51.950;5.902;2022-08-18T12:59:32;8.20;;;4.97;;
38465;SDS011;24244;51.950;5.902;2022-08-18T13:01:59;7.00;;;4.63;;
38465;SDS011;24244;51.950;5.902;2022-08-18T13:04:25;8.10;;;4.50;;
38465;SDS011;24244;51.950;5.902;2022-08-18T13:06:51;8.20;;;4.70;;
38465;SDS011;24244;51.950;5.902;2022-08-18T13:09:20;7.95;;;4.90;;
38465;SDS011;24244;51.950;5.902;2022-08-18T13:11:47;8.63;;;4.65;;
38465;SDS011;24244;51.950;5.902;2022-08-18T13:14:13;7.32;;;4.22;;
38465;SDS011;24244;51.950;5.902;2022-08-18T13:16:40;7.57;;;4.80;;
38465;SDS011;24244;51.950;5.902;2022-08-18T13:19:10;8.10;;;4.50;;
38465;SDS011;24244;51.950;5.902;2022-08-18T13:21:36;7.20;;;4.43;;
38465;SDS011;24244;51.950;5.902;2022-08-18T13:24:03;8.32;;;4.90;;
38465;SDS011;24244;51.950;5.902;2022-08-18T13:26:30;8.70;;;4.75;;
38465;SDS011;24244;51.950;5.902;2022-08-18T13:28:59;8.55;;;5.10;;
38465;SDS011;24244;51.950;5.902;2022-08-18T13:31:24;9.77;;;5.63;;
38465;SDS011;24244;51.950;5.902;2022-08-18T13:33:51;10.25;;;5.20;;
38465;SDS011;24244;51.950;5.902;2022-08-18T13:36:16;8.73;;;4.95;;
38465;SDS011;24244;51.950;5.902;2022-08-18T13:38:42;8.18;;;4.90;;
38465;SDS011;24244;51.950;5.902;2022-08-18T13:41:08;8.70;;;5.20;;
38465;SDS011;24244;51.950;5.902;2022-08-18T13:43:35;7.80;;;4.90;;
38465;SDS011;24244;51.950;5.902;2022-08-18T13:46:04;8.68;;;4.70;;
38465;SDS011;24244;51.950;5.902;2022-08-18T13:48:30;7.85;;;4.57;;
38465;SDS011;24244;51.950;5.902;2022-08-18T13:50:57;7.72;;;4.57;;
38465;SDS011;24244;51.950;5.902;2022-08-18T13:53:24;8.13;;;4.53;;
38465;SDS011;24244;51.950;5.902;2022-08-18T13:55:51;7.43;;;4.70;;
38465;SDS011;24244;51.950;5.902;2022-08-18T13:58:17;8.25;;;4.70;;
38465;SDS011;24244;51.950;5.902;2022-08-18T14:00:42;7.55;;;4.90;;
38465;SDS011;24244;51.950;5.902;2022-08-18T14:03:10;8.35;;;4.60;;
38465;SDS011;24244;51.950;5.902;2022-08-18T14:05:37;7.03;;;3.97;;
38465;SDS011;24244;51.950;5.902;2022-08-18T14:08:03;7.85;;;4.57;;
38465;SDS011;24244;51.950;5.902;2022-08-18T14:10:29;7.78;;;4.60;;
38465;SDS011;24244;51.950;5.902;2022-08-18T14:12:56;8.07;;;4.43;;
38465;SDS011;24244;51.950;5.902;2022-08-18T14:15:24;7.75;;;4.38;;
38465;SDS011;24244;51.950;5.902;2022-08-18T14:17:50;8.25;;;4.35;;
38465;SDS011;24244;51.950;5.902;2022-08-18T14:20:17;8.98;;;4.50;;
38465;SDS011;24244;51.950;5.902;2022-08-18T14:23:02;7.68;;;4.68;;
38465;SDS011;24244;51.950;5.902;2022-08-18T14:25:46;7.72;;;4.15;;
38465;SDS011;24244;51.950;5.902;2022-08-18T14:28:31;8.00;;;4.25;;
38465;SDS011;24244;51.950;5.902;2022-08-18T14:30:58;7.72;;;4.65;;
38465;SDS011;24244;51.950;5.902;2022-08-18T14:33:26;7.72;;;4.65;;
38465;SDS011;24244;51.950;5.902;2022-08-18T14:35:54;7.28;;;4.38;;
38465;SDS011;24244;51.950;5.902;2022-08-18T14:38:20;8.45;;;4.93;;
38465;SDS011;24244;51.950;5.902;2022-08-18T14:40:45;8.02;;;4.60;;
38465;SDS011;24244;51.950;5.902;2022-08-18T14:43:12;9.02;;;4.95;;
38465;SDS011;24244;51.950;5.902;2022-08-18T14:45:39;7.50;;;4.50;;
38465;SDS011;24244;51.950;5.902;2022-08-18T14:48:11;8.20;;;4.45;;
38465;SDS011;24244;51.950;5.902;2022-08-18T14:50:37;7.57;;;4.18;;
38465;SDS011;24244;51.950;5.902;2022-08-18T14:53:05;7.63;;;4.60;;
38465;SDS011;24244;51.950;5.902;2022-08-18T14:55:31;8.25;;;4.60;;
38465;SDS011;24244;51.950;5.902;2022-08-18T14:57:56;7.78;;;4.80;;
38465;SDS011;24244;51.950;5.902;2022-08-18T15:00:22;8.38;;;4.95;;
38465;SDS011;24244;51.950;5.902;2022-08-18T15:02:48;7.55;;;4.70;;
38465;SDS011;24244;51.950;5.902;2022-08-18T15:05:14;7.43;;;4.25;;
38465;SDS011;24244;51.950;5.902;2022-08-18T15:07:40;8.77;;;4.43;;
38465;SDS011;24244;51.950;5.902;2022-08-18T15:10:08;7.65;;;4.13;;
38465;SDS011;24244;51.950;5.902;2022-08-18T15:12:36;8.02;;;4.68;;
38465;SDS011;24244;51.950;5.902;2022-08-18T15:15:01;7.60;;;4.65;;
38465;SDS011;24244;51.950;5.902;2022-08-18T15:17:28;8.60;;;5.05;;
38465;SDS011;24244;51.950;5.902;2022-08-18T15:19:53;7.20;;;4.03;;
38465;SDS011;24244;51.950;5.902;2022-08-18T15:22:19;7.13;;;4.30;;
38465;SDS011;24244;51.950;5.902;2022-08-18T15:25:04;6.85;;;4.30;;
38465;SDS011;24244;51.950;5.902;2022-08-18T15:27:50;7.95;;;3.90;;
38465;SDS011;24244;51.950;5.902;2022-08-18T15:30:16;6.93;;;4.13;;
38465;SDS011;24244;51.950;5.902;2022-08-18T15:32:42;7.65;;;4.30;;
38465;SDS011;24244;51.950;5.902;2022-08-18T15:35:09;7.63;;;4.30;;
38465;SDS011;24244;51.950;5.902;2022-08-18T15:37:36;7.45;;;4.03;;
38465;SDS011;24244;51.950;5.902;2022-08-18T15:40:07;7.07;;;3.90;;